Time;durP1;ratioP1;P1;durP2;ratioP2;P2;SDS_P1;SDS_P2;PMS_P1;PMS_P2;Temp;Humidity;BMP_temperature;BMP_pressure;BME280_temperature;BME280_humidity;BME280_pressure;Samples;Min_cycle;Max_cycle;Signal;HPM_P1;HPM_P2
2024/01/13 00:01:47;;;;;;;90.60;40.40;;;4.30;99.90;;;;;;4972640;28;20197;-78
2024/01/13 00:04:14;;;;;;;88.87;41.10;;;4.50;99.90;;;;;;4959464;28;20212;-78
2024/01/13 00:06:41;;;;;;;83.73;40.60;;;4.50;99.90;;;;;;4972805;28;20205;-78
2024/01/13 00:09:10;;;;;;;90.73;42.57;;;4.40;99.90;;;;;;4980962;28;20219;-78
2024/01/13 00:11:48;;;;;;;98.30;43.17;;;4.30;99.90;;;;;;4977487;28;20558;-78
2024/01/13 00:14:16;;;;;;;96.20;42.50;;;4.40;99.90;;;;;;4959371;28;20234;-78
2024/01/13 00:16:43;;;;;;;100.33;44.27;;;4.20;99.90;;;;;;4977517;28;20199;-78
2024/01/13 00:19:12;;;;;;;102.10;45.03;;;4.30;99.90;;;;;;4965590;28;20669;-78
2024/01/13 00:21:39;;;;;;;102.07;43.33;;;4.30;99.90;;;;;;4976661;28;20208;-78
2024/01/13 00:24:07;;;;;;;94.70;43.50;;;4.30;99.90;;;;;;4976352;28;20224;-78
2024/01/13 00:26:35;;;;;;;110.27;43.93;;;4.30;99.90;;;;;;4972523;28;20831;-78
2024/01/13 00:29:02;;;;;;;97.00;45.20;;;4.20;99.90;;;;;;4965123;28;20214;-78
2024/01/13 00:31:29;;;;;;;108.33;48.23;;;4.30;99.90;;;;;;4964205;28;20196;-78
2024/01/13 00:33:57;;;;;;;118.27;47.77;;;4.20;99.90;;;;;;4996846;28;20703;-78
2024/01/13 00:36:26;;;;;;;107.60;47.93;;;4.20;99.90;;;;;;4982370;28;20206;-78
2024/01/13 00:38:53;;;;;;;90.30;43.67;;;4.20;99.90;;;;;;4964953;28;20199;-78
2024/01/13 00:41:21;;;;;;;100.17;46.67;;;4.20;99.90;;;;;;4976751;28;20209;-78
2024/01/13 00:43:48;;;;;;;105.93;46.47;;;4.20;99.90;;;;;;4969292;28;20215;-78
2024/01/13 00:46:16;;;;;;;102.63;44.10;;;4.10;99.90;;;;;;4971670;28;20756;-78
2024/01/13 00:48:43;;;;;;;95.50;44.27;;;4.20;99.90;;;;;;4983313;28;20203;-78
2024/01/13 00:51:11;;;;;;;89.90;42.37;;;4.20;99.90;;;;;;4960275;28;20207;-78
2024/01/13 00:53:40;;;;;;;86.63;42.80;;;4.20;99.90;;;;;;4991830;28;20222;-78
2024/01/13 00:56:07;;;;;;;76.03;39.37;;;4.20;99.90;;;;;;4992477;28;20223;-77
2024/01/13 00:58:35;;;;;;;73.27;39.60;;;4.30;99.90;;;;;;4969627;28;20207;-77
2024/01/13 01:01:03;;;;;;;71.33;39.13;;;4.20;99.90;;;;;;4976361;28;20203;-77
2024/01/13 01:03:30;;;;;;;70.13;34.33;;;4.10;99.90;;;;;;4982671;28;20222;-78
2024/01/13 01:05:59;;;;;;;64.13;37.43;;;4.20;99.90;;;;;;4969156;28;20193;-77
2024/01/13 01:08:26;;;;;;;65.73;35.47;;;4.20;99.90;;;;;;4966875;28;20207;-77
2024/01/13 01:10:55;;;;;;;64.07;33.30;;;4.20;99.90;;;;;;4984296;28;20209;-77
2024/01/13 01:13:22;;;;;;;68.23;35.00;;;4.20;99.90;;;;;;5021890;22;20663;-77
2024/01/13 01:15:50;;;;;;;67.23;35.20;;;4.30;99.90;;;;;;5021390;28;20209;-77
2024/01/13 01:18:17;;;;;;;68.23;34.07;;;4.20;99.90;;;;;;5042447;28;20198;-77
2024/01/13 01:20:45;;;;;;;60.27;34.73;;;4.20;99.90;;;;;;5035761;28;20714;-77
2024/01/13 01:23:31;;;;;;;72.03;36.30;;;4.10;99.90;;;;;;5011636;28;20221;-77
2024/01/13 01:26:00;;;;;;;69.10;35.10;;;4.10;99.90;;;;;;5032519;28;20559;-78
2024/01/13 01:28:27;;;;;;;69.90;38.33;;;4.00;99.90;;;;;;5039789;28;20200;-77
2024/01/13 01:30:55;;;;;;;69.80;36.70;;;4.00;99.90;;;;;;5040474;28;20568;-77
2024/01/13 01:33:22;;;;;;;63.30;35.90;;;4.10;99.90;;;;;;5034507;28;20225;-77
2024/01/13 01:35:50;;;;;;;71.60;38.10;;;4.00;99.90;;;;;;5023921;28;20681;-77
2024/01/13 01:38:17;;;;;;;72.67;36.87;;;4.00;99.90;;;;;;5033706;28;20213;-77
2024/01/13 01:40:48;;;;;;;69.00;36.73;;;4.00;99.90;;;;;;5034123;28;20558;-77
2024/01/13 01:43:16;;;;;;;70.50;36.87;;;4.00;99.90;;;;;;5020932;28;20229;-77
2024/01/13 01:45:44;;;;;;;80.63;38.43;;;4.00;99.90;;;;;;5023960;28;20195;-77
2024/01/13 01:48:11;;;;;;;69.17;37.33;;;4.00;99.90;;;;;;5034064;28;20682;-77
2024/01/13 01:50:39;;;;;;;72.20;38.47;;;4.00;99.90;;;;;;5034630;28;20197;-77
2024/01/13 01:53:07;;;;;;;73.67;37.87;;;4.00;99.90;;;;;;5029057;28;20185;-77
2024/01/13 01:55:35;;;;;;;70.13;37.83;;;4.00;99.90;;;;;;5012344;28;20563;-77
2024/01/13 01:58:02;;;;;;;70.80;38.33;;;4.00;99.90;;;;;;5019783;28;20196;-77
2024/01/13 02:00:33;;;;;;;63.67;36.27;;;4.10;99.90;;;;;;5039851;28;20666;-77
2024/01/13 02:03:00;;;;;;;65.23;36.23;;;4.30;99.90;;;;;;5029519;28;20225;-77
2024/01/13 02:05:28;;;;;;;69.83;35.53;;;4.30;99.90;;;;;;5013329;28;20198;-77
2024/01/13 02:07:56;;;;;;;65.87;35.17;;;4.00;99.90;;;;;;5026913;28;20206;-77
2024/01/13 02:10:24;;;;;;;59.53;34.57;;;4.00;99.90;;;;;;5046369;28;20205;-77
2024/01/13 02:12:52;;;;;;;63.20;33.90;;;4.00;99.90;;;;;;5013124;28;20201;-77
2024/01/13 02:15:19;;;;;;;60.37;34.07;;;4.00;99.90;;;;;;5027358;28;20214;-77
2024/01/13 02:17:48;;;;;;;56.67;33.03;;;3.90;99.90;;;;;;5029958;28;20557;-77
2024/01/13 02:20:16;;;;;;;61.13;33.80;;;3.90;99.90;;;;;;5039377;28;20213;-77
2024/01/13 02:22:44;;;;;;;63.23;33.87;;;3.80;99.90;;;;;;5018038;28;20199;-77
2024/01/13 02:25:12;;;;;;;54.83;31.77;;;3.90;99.90;;;;;;5011489;28;20211;-77
2024/01/13 02:27:40;;;;;;;55.23;30.37;;;3.90;99.90;;;;;;5018223;28;20210;-77
2024/01/13 02:30:08;;;;;;;51.17;31.00;;;3.90;99.90;;;;;;5037114;28;20542;-78
2024/01/13 02:32:35;;;;;;;55.70;30.60;;;3.90;99.90;;;;;;5011889;28;20210;-77
2024/01/13 02:35:03;;;;;;;48.33;30.20;;;4.00;99.90;;;;;;5010984;28;20310;-77
2024/01/13 02:37:30;;;;;;;49.47;29.87;;;4.00;99.90;;;;;;5024130;28;20713;-77
2024/01/13 02:39:59;;;;;;;49.60;30.13;;;4.00;99.90;;;;;;5028293;28;20208;-77
2024/01/13 02:42:26;;;;;;;43.40;27.10;;;4.00;99.90;;;;;;5045407;28;20202;-77
2024/01/13 02:44:54;;;;;;;46.73;28.03;;;4.00;99.90;;;;;;5038608;28;20576;-78
2024/01/13 02:47:26;;;;;;;47.17;28.10;;;3.90;99.90;;;;;;5033100;28;20206;-77
2024/01/13 02:49:53;;;;;;;46.67;27.50;;;3.90;99.90;;;;;;5042166;28;20208;-77
2024/01/13 02:52:21;;;;;;;48.80;27.60;;;3.80;99.90;;;;;;5029107;28;20197;-77
2024/01/13 02:54:48;;;;;;;49.80;28.63;;;3.80;99.90;;;;;;5029027;28;20210;-77
2024/01/13 02:57:17;;;;;;;45.90;27.73;;;3.80;99.90;;;;;;5018085;28;20201;-77
2024/01/13 02:59:45;;;;;;;46.33;26.77;;;3.80;99.90;;;;;;5036101;28;20192;-77
2024/01/13 03:02:12;;;;;;;45.33;27.97;;;3.80;99.90;;;;;;5040889;28;20208;-77
2024/01/13 03:04:39;;;;;;;52.57;30.93;;;3.80;99.90;;;;;;5036324;28;20218;-77
2024/01/13 03:07:07;;;;;;;44.97;27.23;;;3.70;99.90;;;;;;5019331;28;20208;-77
2024/01/13 03:09:34;;;;;;;49.80;29.77;;;3.70;99.90;;;;;;5039195;28;20210;-77
2024/01/13 03:12:02;;;;;;;50.53;27.77;;;3.70;99.90;;;;;;5040553;28;20212;-77
2024/01/13 03:14:31;;;;;;;51.40;29.20;;;3.80;99.90;;;;;;5012470;28;20253;-77
2024/01/13 03:16:58;;;;;;;45.47;28.17;;;3.70;99.90;;;;;;5023397;28;20580;-78
2024/01/13 03:19:26;;;;;;;45.37;27.77;;;3.80;99.90;;;;;;5027844;28;20219;-77
2024/01/13 03:21:53;;;;;;;47.87;27.73;;;3.80;99.90;;;;;;5043897;28;20190;-77
2024/01/13 03:24:21;;;;;;;48.83;27.63;;;3.70;99.90;;;;;;5022924;28;20659;-77
2024/01/13 03:26:48;;;;;;;44.97;26.63;;;3.70;99.90;;;;;;5025829;28;20208;-77
2024/01/13 03:29:16;;;;;;;45.03;27.73;;;3.80;99.90;;;;;;5056234;28;20209;-77
2024/01/13 03:31:44;;;;;;;44.70;26.60;;;3.80;99.90;;;;;;5030369;28;20217;-77
2024/01/13 03:34:12;;;;;;;49.37;27.93;;;3.90;99.90;;;;;;5022686;28;20220;-77
2024/01/13 03:36:39;;;;;;;43.63;26.17;;;3.80;99.90;;;;;;5033587;28;20218;-77
2024/01/13 03:39:09;;;;;;;48.70;26.67;;;3.90;99.90;;;;;;5043753;28;20675;-78
2024/01/13 03:41:36;;;;;;;48.77;25.23;;;3.80;99.90;;;;;;5033777;28;20203;-77
2024/01/13 03:44:04;;;;;;;41.00;26.03;;;3.80;99.90;;;;;;5032942;28;20227;-77
2024/01/13 03:46:32;;;;;;;42.63;26.27;;;3.80;99.90;;;;;;5041114;28;20199;-77
2024/01/13 03:49:00;;;;;;;46.17;26.83;;;3.70;99.90;;;;;;5028249;28;20210;-77
2024/01/13 03:51:28;;;;;;;38.17;25.37;;;3.70;99.90;;;;;;5039347;28;20676;-77
2024/01/13 03:53:56;;;;;;;40.40;26.57;;;3.70;99.90;;;;;;5028291;28;20218;-77
2024/01/13 03:56:23;;;;;;;42.57;25.33;;;3.80;99.90;;;;;;5030173;28;20228;-77
2024/01/13 03:58:50;;;;;;;40.83;25.30;;;3.70;99.90;;;;;;5030360;28;20202;-77
2024/01/13 04:01:18;;;;;;;42.43;26.03;;;3.80;99.90;;;;;;5033503;28;20195;-77
2024/01/13 04:03:45;;;;;;;41.93;24.83;;;3.70;99.90;;;;;;5048028;28;20718;-77
2024/01/13 04:06:14;;;;;;;45.23;27.30;;;3.70;99.90;;;;;;5023364;28;20201;-77
2024/01/13 04:08:42;;;;;;;39.53;25.10;;;3.70;99.90;;;;;;5052743;28;20191;-78
2024/01/13 04:11:09;;;;;;;39.83;23.67;;;3.70;99.90;;;;;;5050489;28;20566;-77
2024/01/13 04:13:37;;;;;;;41.20;24.87;;;3.50;99.90;;;;;;5027822;28;20226;-77
2024/01/13 04:16:04;;;;;;;43.93;25.10;;;3.60;99.90;;;;;;5032930;28;20209;-78
2024/01/13 04:18:32;;;;;;;36.20;23.77;;;3.60;99.90;;;;;;5035834;28;20198;-77
2024/01/13 04:20:59;;;;;;;36.50;22.47;;;3.60;99.90;;;;;;5029400;28;20206;-77
2024/01/13 04:23:28;;;;;;;33.03;22.27;;;3.50;99.90;;;;;;5031471;28;20213;-77
2024/01/13 04:25:55;;;;;;;33.67;21.80;;;3.60;99.90;;;;;;5044260;28;20198;-77
2024/01/13 04:28:23;;;;;;;27.23;18.67;;;3.60;99.90;;;;;;5058373;28;20204;-77
2024/01/13 04:30:50;;;;;;;28.63;18.77;;;3.60;99.90;;;;;;5031610;28;20199;-77
2024/01/13 04:33:18;;;;;;;30.63;19.80;;;3.60;99.90;;;;;;5055453;28;20230;-77
2024/01/13 04:35:45;;;;;;;29.33;18.77;;;3.70;99.90;;;;;;5026623;28;20219;-78
2024/01/13 04:38:12;;;;;;;28.67;19.47;;;3.60;99.90;;;;;;5029192;28;20195;-78
2024/01/13 04:40:41;;;;;;;28.27;19.57;;;3.70;99.90;;;;;;5023609;28;20202;-77
2024/01/13 04:43:09;;;;;;;30.20;18.77;;;3.70;99.90;;;;;;5023149;28;20199;-77
2024/01/13 04:45:36;;;;;;;33.33;21.60;;;3.60;99.90;;;;;;5019860;28;20191;-77
2024/01/13 04:48:04;;;;;;;32.20;20.70;;;3.60;99.90;;;;;;5031387;28;20202;-77
2024/01/13 04:50:31;;;;;;;32.83;21.47;;;3.60;99.90;;;;;;5014714;28;20193;-78
2024/01/13 04:52:59;;;;;;;31.50;20.87;;;3.50;99.90;;;;;;5036506;28;20194;-77
2024/01/13 04:55:26;;;;;;;32.83;21.80;;;3.70;99.90;;;;;;5042119;28;20204;-77
2024/01/13 04:57:55;;;;;;;35.27;22.43;;;3.70;99.90;;;;;;5042981;28;20563;-77
2024/01/13 05:00:22;;;;;;;38.17;23.70;;;3.60;99.90;;;;;;5025419;28;20221;-77
2024/01/13 05:02:50;;;;;;;37.23;23.67;;;3.50;99.90;;;;;;5018288;28;20195;-77
2024/01/13 05:05:17;;;;;;;33.40;22.90;;;3.50;99.90;;;;;;5016980;28;20226;-77
2024/01/13 05:07:45;;;;;;;37.60;23.73;;;3.40;99.90;;;;;;5016333;28;20190;-77
2024/01/13 05:10:12;;;;;;;37.90;24.67;;;3.40;99.90;;;;;;5028053;28;20208;-77
2024/01/13 05:12:39;;;;;;;33.50;22.57;;;3.50;99.90;;;;;;5039035;28;20205;-77
2024/01/13 05:15:09;;;;;;;35.70;22.07;;;3.50;99.90;;;;;;5029566;28;20219;-78
2024/01/13 05:17:36;;;;;;;35.43;23.73;;;3.50;99.90;;;;;;5043445;28;20229;-77
2024/01/13 05:20:05;;;;;;;37.80;24.93;;;3.50;99.90;;;;;;5052674;28;20201;-77
2024/01/13 05:22:32;;;;;;;40.73;24.50;;;3.40;99.90;;;;;;5032142;28;20569;-77
2024/01/13 05:24:59;;;;;;;38.67;24.20;;;3.40;99.90;;;;;;5021881;28;20228;-78
2024/01/13 05:27:27;;;;;;;43.60;25.07;;;3.30;99.90;;;;;;5038487;28;20196;-77
2024/01/13 05:29:54;;;;;;;39.80;25.73;;;3.40;99.90;;;;;;5038122;28;20205;-77
2024/01/13 05:32:23;;;;;;;45.23;27.47;;;3.40;99.90;;;;;;5041549;28;20199;-77
2024/01/13 05:34:50;;;;;;;43.30;26.90;;;3.40;99.90;;;;;;5029537;28;20223;-77
2024/01/13 05:37:18;;;;;;;46.03;25.73;;;3.40;99.90;;;;;;5054440;28;20221;-77
2024/01/13 05:39:45;;;;;;;42.93;27.57;;;3.40;99.90;;;;;;5041636;28;20198;-77
2024/01/13 05:42:13;;;;;;;40.10;26.47;;;3.40;99.90;;;;;;5037073;28;20207;-76
2024/01/13 05:44:40;;;;;;;41.43;26.60;;;3.50;99.90;;;;;;5031989;28;20223;-76
2024/01/13 05:47:09;;;;;;;46.63;26.63;;;3.50;99.90;;;;;;5028536;28;20208;-75
2024/01/13 05:49:37;;;;;;;45.57;26.60;;;3.50;99.90;;;;;;5030673;28;20268;-76
2024/01/13 05:52:05;;;;;;;40.50;26.23;;;3.50;99.90;;;;;;5032201;28;20218;-76
2024/01/13 05:54:33;;;;;;;38.50;25.80;;;3.50;99.90;;;;;;5035479;28;20224;-76
2024/01/13 05:57:00;;;;;;;38.27;23.80;;;3.50;99.90;;;;;;5023064;28;20219;-76
2024/01/13 05:59:27;;;;;;;40.60;26.17;;;3.50;99.90;;;;;;5032079;28;20215;-76
2024/01/13 06:01:55;;;;;;;38.47;25.30;;;3.50;99.90;;;;;;5043276;28;20199;-76
2024/01/13 06:04:22;;;;;;;37.93;23.87;;;3.50;99.90;;;;;;5032822;28;20232;-76
2024/01/13 06:06:51;;;;;;;43.50;26.03;;;3.50;99.90;;;;;;5028719;28;20202;-76
2024/01/13 06:09:18;;;;;;;41.90;26.37;;;3.60;99.90;;;;;;5032958;28;20197;-76
2024/01/13 06:11:46;;;;;;;44.37;25.73;;;3.60;99.90;;;;;;5024042;28;20206;-75
2024/01/13 06:14:13;;;;;;;39.03;24.07;;;3.50;99.90;;;;;;5019908;28;20231;-76
2024/01/13 06:16:40;;;;;;;45.57;27.53;;;3.50;99.90;;;;;;5018920;28;20221;-75
2024/01/13 06:19:14;;;;;;;41.13;24.87;;;3.60;99.90;;;;;;5034984;28;20201;-73
2024/01/13 06:21:43;;;;;;;38.23;24.73;;;3.60;99.90;;;;;;5037248;28;20187;-74
2024/01/13 06:24:12;;;;;;;38.20;22.97;;;3.80;99.90;;;;;;5034921;28;20221;-73
2024/01/13 06:26:40;;;;;;;39.57;25.07;;;3.80;99.90;;;;;;5029447;28;20652;-76
2024/01/13 06:29:16;;;;;;;34.90;23.90;;;3.60;99.90;;;;;;5072435;28;20650;-75
2024/01/13 06:31:43;;;;;;;38.00;24.60;;;3.60;99.90;;;;;;5058421;28;20195;-76
2024/01/13 06:34:11;;;;;;;39.97;24.53;;;3.50;99.90;;;;;;5060353;28;20566;-76
2024/01/13 06:36:38;;;;;;;38.47;22.43;;;3.50;99.90;;;;;;5051158;28;20194;-75
2024/01/13 06:39:06;;;;;;;40.33;25.93;;;3.60;99.90;;;;;;5068273;28;20211;-76
2024/01/13 06:41:34;;;;;;;40.60;24.97;;;3.60;99.90;;;;;;5058764;28;20637;-76
2024/01/13 06:44:02;;;;;;;43.47;24.93;;;3.60;99.90;;;;;;5061064;28;20259;-76
2024/01/13 06:46:29;;;;;;;41.77;24.63;;;3.50;99.90;;;;;;5062206;28;20206;-76
2024/01/13 06:48:57;;;;;;;39.93;24.63;;;3.50;99.90;;;;;;5060734;28;20205;-76
2024/01/13 06:51:25;;;;;;;36.57;25.20;;;3.50;99.90;;;;;;5056589;28;20206;-76
2024/01/13 06:53:55;;;;;;;41.23;25.50;;;3.40;99.90;;;;;;5065284;28;20239;-76
2024/01/13 06:56:23;;;;;;;35.77;24.53;;;3.50;99.90;;;;;;5064973;28;20196;-77
2024/01/13 06:58:52;;;;;;;40.67;25.47;;;3.40;99.90;;;;;;5074440;28;20236;-76
2024/01/13 07:01:20;;;;;;;43.80;26.80;;;3.40;99.90;;;;;;5072893;28;20574;-76
2024/01/13 07:03:47;;;;;;;42.83;25.40;;;3.40;99.90;;;;;;5065398;28;20228;-76
2024/01/13 07:06:15;;;;;;;43.00;26.13;;;3.40;99.90;;;;;;5061908;28;20214;-77
2024/01/13 07:08:43;;;;;;;41.20;26.23;;;3.40;99.90;;;;;;5068448;28;20210;-76
2024/01/13 07:11:14;;;;;;;37.90;25.03;;;3.30;99.90;;;;;;5085384;28;20202;-76
2024/01/13 07:13:43;;;;;;;38.60;24.80;;;3.30;99.90;;;;;;5061329;28;20231;-77
2024/01/13 07:16:12;;;;;;;34.97;23.63;;;3.20;99.90;;;;;;5067960;28;20204;-77
2024/01/13 07:18:39;;;;;;;37.00;23.07;;;3.30;99.90;;;;;;5069794;28;20208;-76
2024/01/13 07:21:07;;;;;;;38.97;23.43;;;3.20;99.90;;;;;;5076404;28;20649;-76
2024/01/13 07:23:34;;;;;;;32.57;22.30;;;3.20;99.90;;;;;;5075400;28;20234;-77
2024/01/13 07:26:02;;;;;;;31.27;22.93;;;3.20;99.90;;;;;;5075306;28;20218;-80
2024/01/13 07:28:31;;;;;;;38.13;22.33;;;3.30;99.90;;;;;;5083320;28;20523;-80
2024/01/13 07:30:59;;;;;;;32.33;22.87;;;3.20;99.90;;;;;;5081103;28;20208;-80
2024/01/13 07:33:28;;;;;;;31.93;22.83;;;3.30;99.90;;;;;;5064156;28;20702;-80
2024/01/13 07:35:55;;;;;;;34.63;22.80;;;3.30;99.90;;;;;;5081650;28;20197;-79
2024/01/13 07:38:32;;;;;;;33.60;20.67;;;3.20;99.90;;;;;;5071845;28;20701;-79
2024/01/13 07:40:59;;;;;;;31.20;21.07;;;3.30;99.90;;;;;;5071687;28;20210;-79
2024/01/13 07:43:26;;;;;;;28.20;19.90;;;3.20;99.90;;;;;;5071306;28;20223;-79
2024/01/13 07:45:54;;;;;;;30.63;19.73;;;3.30;99.90;;;;;;5101436;28;20211;-81
2024/01/13 07:48:22;;;;;;;26.80;19.33;;;3.30;99.90;;;;;;5094514;28;20204;-80
2024/01/13 07:50:50;;;;;;;31.73;19.73;;;3.20;99.90;;;;;;5098905;28;20200;-81
2024/01/13 07:53:18;;;;;;;29.30;20.73;;;3.30;99.90;;;;;;5079831;28;20214;-80
2024/01/13 07:55:45;;;;;;;31.23;19.63;;;3.20;99.90;;;;;;5094344;28;20208;-80
2024/01/13 07:58:13;;;;;;;27.00;18.10;;;3.20;99.90;;;;;;5085765;28;20222;-80
2024/01/13 08:00:40;;;;;;;30.73;19.77;;;3.20;99.90;;;;;;5077360;28;20199;-79
2024/01/13 08:03:07;;;;;;;28.43;19.13;;;3.20;99.90;;;;;;5077427;28;20205;-79
2024/01/13 08:05:35;;;;;;;27.00;18.00;;;3.20;99.90;;;;;;5062254;28;20198;-79
2024/01/13 08:08:06;;;;;;;29.20;19.17;;;3.30;99.90;;;;;;5066380;28;20230;-78
2024/01/13 08:10:36;;;;;;;26.23;17.57;;;3.30;99.90;;;;;;5066791;28;20190;-79
2024/01/13 08:13:04;;;;;;;28.23;16.97;;;3.30;99.90;;;;;;5062947;28;20220;-79
2024/01/13 08:16:16;;;;;;;27.67;17.87;;;3.30;99.90;;;;;;5054119;28;20206;-78
2024/01/13 08:18:43;;;;;;;24.13;14.83;;;3.30;99.90;;;;;;5056859;28;20204;-78
2024/01/13 08:21:11;;;;;;;23.27;15.17;;;3.30;99.90;;;;;;5078565;28;20223;-78
2024/01/13 08:23:40;;;;;;;25.53;17.00;;;3.40;99.90;;;;;;5071739;28;20247;-78
2024/01/13 08:26:07;;;;;;;26.50;17.73;;;3.30;99.90;;;;;;5054890;28;20200;-78
2024/01/13 08:28:35;;;;;;;24.77;16.97;;;3.40;99.90;;;;;;5062979;28;20190;-78
2024/01/13 08:31:02;;;;;;;32.90;18.23;;;3.40;99.90;;;;;;5077887;28;20209;-77
2024/01/13 08:34:11;;;;;;;25.37;16.70;;;3.50;99.90;;;;;;5055155;28;20211;-77
2024/01/13 08:36:38;;;;;;;24.93;14.97;;;3.50;99.90;;;;;;5062673;28;20201;-77
2024/01/13 08:39:07;;;;;;;25.57;15.77;;;3.40;99.90;;;;;;5091145;28;20216;-77
2024/01/13 08:41:34;;;;;;;28.40;19.07;;;3.50;99.90;;;;;;5056385;28;20216;-73
2024/01/13 08:44:02;;;;;;;33.20;18.03;;;3.60;99.90;;;;;;5066958;28;20231;-73
2024/01/13 08:46:29;;;;;;;31.53;19.57;;;3.80;99.90;;;;;;5064556;28;20205;-73
2024/01/13 08:49:19;;;;;;;27.40;17.67;;;3.80;99.90;;;;;;5066300;28;20207;-74
2024/01/13 08:51:47;;;;;;;24.73;16.13;;;4.40;99.90;;;;;;5090276;28;20205;-73
2024/01/13 08:54:15;;;;;;;29.17;19.40;;;4.10;99.90;;;;;;5052599;28;20224;-78
2024/01/13 08:56:50;;;;;;;29.00;19.10;;;3.70;99.90;;;;;;5077188;28;20205;-78
2024/01/13 08:59:17;;;;;;;30.97;19.63;;;3.60;99.90;;;;;;5065789;28;20214;-77
2024/01/13 09:01:48;;;;;;;31.67;20.47;;;3.60;99.90;;;;;;5066654;28;20205;-77
2024/01/13 09:04:15;;;;;;;31.97;19.97;;;3.70;99.90;;;;;;5063764;28;20217;-77
2024/01/13 09:06:43;;;;;;;32.73;20.63;;;3.70;99.90;;;;;;5081766;28;20215;-77
2024/01/13 09:09:10;;;;;;;31.27;20.73;;;3.70;99.90;;;;;;5059331;28;20211;-77
2024/01/13 09:11:41;;;;;;;31.70;20.07;;;3.70;99.90;;;;;;5088268;28;20203;-77
2024/01/13 09:14:08;;;;;;;33.00;21.40;;;3.70;99.90;;;;;;5066585;28;20225;-76
2024/01/13 09:16:36;;;;;;;34.03;21.73;;;3.70;99.90;;;;;;5075599;28;20200;-76
2024/01/13 09:19:03;;;;;;;36.60;23.23;;;3.70;99.90;;;;;;5063391;28;20212;-77
2024/01/13 09:21:31;;;;;;;34.23;20.53;;;3.70;99.90;;;;;;5077400;28;20228;-77
2024/01/13 09:24:00;;;;;;;36.40;23.50;;;3.70;99.90;;;;;;5061627;28;20239;-77
2024/01/13 09:26:27;;;;;;;35.17;22.20;;;3.70;99.90;;;;;;5072349;28;20201;-77
2024/01/13 09:28:56;;;;;;;37.33;22.63;;;3.70;99.90;;;;;;5074858;28;20215;-78
2024/01/13 09:31:23;;;;;;;35.87;22.57;;;3.70;99.90;;;;;;5068523;28;20190;-77
2024/01/13 09:33:50;;;;;;;38.17;22.97;;;3.60;99.90;;;;;;5065661;28;20229;-77
2024/01/13 09:36:18;;;;;;;34.90;21.47;;;3.60;99.90;;;;;;5065742;28;20200;-78
2024/01/13 09:38:45;;;;;;;35.47;22.03;;;3.60;99.90;;;;;;5059887;28;20212;-78
2024/01/13 09:41:13;;;;;;;30.90;19.33;;;3.70;99.90;;;;;;5057682;28;20589;-78
2024/01/13 09:43:46;;;;;;;37.00;22.37;;;3.60;99.90;;;;;;5069041;28;20721;-78
2024/01/13 09:46:15;;;;;;;36.40;22.53;;;3.60;99.90;;;;;;5066717;28;20209;-78
2024/01/13 09:49:10;;;;;;;35.20;22.40;;;3.70;99.90;;;;;;5055090;28;20203;-78
2024/01/13 09:51:38;;;;;;;38.93;22.90;;;3.70;99.90;;;;;;5053713;28;20202;-78
2024/01/13 09:54:10;;;;;;;35.80;23.63;;;3.60;99.90;;;;;;5061016;28;20214;-78
2024/01/13 09:56:44;;;;;;;32.73;20.57;;;3.60;99.90;;;;;;5071744;28;20226;-78
2024/01/13 09:59:12;;;;;;;37.17;22.57;;;3.60;99.90;;;;;;5058982;28;20667;-78
2024/01/13 10:01:44;;;;;;;34.40;23.00;;;3.60;99.90;;;;;;5061696;28;20205;-78
2024/01/13 10:04:25;;;;;;;38.20;25.37;;;3.60;99.90;;;;;;5065064;28;20340;-77
2024/01/13 10:07:20;;;;;;;34.47;22.53;;;3.70;99.90;;;;;;5053429;28;20200;-77
2024/01/13 10:09:48;;;;;;;34.03;23.43;;;3.60;99.90;;;;;;5053896;28;20194;-77
2024/01/13 10:12:16;;;;;;;37.57;22.63;;;3.60;99.90;;;;;;5051684;28;20204;-78
2024/01/13 10:14:49;;;;;;;38.30;23.87;;;3.70;99.90;;;;;;5067250;28;20219;-78
2024/01/13 10:17:22;;;;;;;39.90;21.13;;;3.70;99.90;;;;;;5051497;28;20541;-78
2024/01/13 10:20:14;;;;;;;34.90;21.67;;;3.60;99.90;;;;;;5060953;28;20214;-78
2024/01/13 10:22:42;;;;;;;38.20;22.80;;;3.70;99.90;;;;;;5060813;28;20195;-78
2024/01/13 10:25:12;;;;;;;40.20;23.93;;;3.70;99.90;;;;;;5074433;28;20226;-78
2024/01/13 10:27:39;;;;;;;36.67;23.30;;;3.80;99.90;;;;;;5068508;28;20198;-78
2024/01/13 10:30:08;;;;;;;41.57;26.33;;;3.70;99.90;;;;;;5071875;28;20192;-77
2024/01/13 10:32:37;;;;;;;37.70;23.73;;;3.80;99.90;;;;;;5058497;28;20195;-77
2024/01/13 10:35:17;;;;;;;36.40;23.77;;;3.80;99.90;;;;;;5060535;28;20224;-78
2024/01/13 10:37:45;;;;;;;37.43;24.13;;;3.80;99.90;;;;;;5076586;28;20205;-78
2024/01/13 10:40:12;;;;;;;37.27;23.50;;;3.80;99.90;;;;;;5052740;28;20209;-78
2024/01/13 10:42:46;;;;;;;40.37;24.07;;;3.90;99.90;;;;;;5059456;28;20217;-79
2024/01/13 10:45:17;;;;;;;41.73;24.10;;;3.80;99.90;;;;;;5053636;28;20243;-78
2024/01/13 10:47:51;;;;;;;39.83;24.10;;;3.90;99.90;;;;;;5054304;28;20208;-78
2024/01/13 10:50:41;;;;;;;36.87;23.87;;;3.90;99.90;;;;;;5054970;28;20193;-78
2024/01/13 10:53:17;;;;;;;44.20;25.57;;;3.90;99.90;;;;;;5059014;28;20207;-78
2024/01/13 10:55:46;;;;;;;40.00;25.17;;;3.90;99.90;;;;;;5061350;28;20201;-78
2024/01/13 10:58:18;;;;;;;38.03;26.17;;;3.90;99.90;;;;;;5067992;28;20205;-78
2024/01/13 11:00:46;;;;;;;42.80;25.90;;;3.90;99.90;;;;;;5064201;28;20213;-78
2024/01/13 11:03:16;;;;;;;38.40;24.30;;;3.90;99.90;;;;;;5019878;28;20275;-78
2024/01/13 11:05:43;;;;;;;37.70;24.00;;;3.90;99.90;;;;;;5063869;28;20540;-78
2024/01/13 11:08:14;;;;;;;34.03;21.57;;;3.90;99.90;;;;;;5056676;28;20221;-78
2024/01/13 11:10:51;;;;;;;32.57;21.47;;;3.90;99.90;;;;;;5062555;28;20211;-78
2024/01/13 11:13:23;;;;;;;35.67;22.63;;;3.90;99.90;;;;;;5068912;28;20223;-79
2024/01/13 11:15:57;;;;;;;38.77;23.83;;;3.90;99.90;;;;;;5068940;28;20201;-78
2024/01/13 11:18:26;;;;;;;37.53;22.97;;;4.00;99.90;;;;;;5066611;28;20190;-78
2024/01/13 11:21:01;;;;;;;37.00;24.33;;;4.00;99.90;;;;;;5063410;28;20205;-79
2024/01/13 11:23:29;;;;;;;40.13;23.97;;;3.90;99.90;;;;;;5071585;28;20213;-79
2024/01/13 11:25:56;;;;;;;35.03;23.63;;;4.00;99.90;;;;;;5062208;28;20198;-78
2024/01/13 11:28:24;;;;;;;39.77;23.73;;;4.10;99.90;;;;;;5053769;28;20208;-78
2024/01/13 11:30:51;;;;;;;38.33;23.00;;;4.10;99.90;;;;;;5055142;28;20568;-78
2024/01/13 11:33:19;;;;;;;39.60;24.10;;;4.10;99.90;;;;;;5053570;28;20240;-78
2024/01/13 11:35:51;;;;;;;37.77;24.23;;;4.00;99.90;;;;;;5061080;28;20202;-78
2024/01/13 11:38:22;;;;;;;37.60;23.50;;;4.10;99.90;;;;;;5065283;28;20226;-78
2024/01/13 11:40:50;;;;;;;39.03;22.63;;;4.10;99.90;;;;;;5072817;28;20224;-78
2024/01/13 11:43:24;;;;;;;36.53;21.40;;;4.10;99.90;;;;;;5057544;28;20221;-78
2024/01/13 11:45:52;;;;;;;34.23;21.90;;;4.10;99.90;;;;;;5075761;28;20218;-78
2024/01/13 11:48:42;;;;;;;35.27;22.47;;;4.10;99.90;;;;;;5063423;28;20192;-78
2024/01/13 11:51:13;;;;;;;32.87;20.37;;;4.10;99.90;;;;;;5066497;28;20204;-78
2024/01/13 11:53:43;;;;;;;35.50;21.30;;;4.10;99.90;;;;;;5057945;28;20303;-78
2024/01/13 11:56:12;;;;;;;35.40;22.17;;;4.20;99.90;;;;;;5076066;28;20553;-77
2024/01/13 11:58:41;;;;;;;32.13;21.77;;;4.30;99.90;;;;;;5081353;28;20211;-78
2024/01/13 12:01:11;;;;;;;32.90;20.93;;;4.20;99.90;;;;;;5103603;28;20231;-78
2024/01/13 12:03:40;;;;;;;34.53;21.67;;;4.30;99.90;;;;;;5078588;28;20217;-78
2024/01/13 12:06:11;;;;;;;34.57;21.80;;;4.30;99.90;;;;;;5084780;28;20212;-78
2024/01/13 12:08:38;;;;;;;32.40;22.03;;;4.40;99.90;;;;;;5085194;28;20192;-78
2024/01/13 12:11:06;;;;;;;34.73;21.63;;;4.30;99.90;;;;;;5071054;28;20208;-78
2024/01/13 12:13:33;;;;;;;31.87;21.37;;;4.30;99.90;;;;;;5090209;28;20232;-78
2024/01/13 12:16:05;;;;;;;28.63;19.70;;;4.30;99.90;;;;;;5063687;28;20202;-78
2024/01/13 12:18:33;;;;;;;29.70;18.27;;;4.30;99.90;;;;;;5094924;28;20210;-78
2024/01/13 12:21:03;;;;;;;28.83;19.60;;;4.30;99.90;;;;;;5091339;28;20213;-78
2024/01/13 12:23:32;;;;;;;32.87;20.90;;;4.30;99.90;;;;;;5069944;28;20212;-78
2024/01/13 12:26:00;;;;;;;32.87;21.07;;;4.40;99.90;;;;;;5058108;28;20216;-78
2024/01/13 12:28:27;;;;;;;33.47;22.17;;;4.40;99.90;;;;;;5074211;28;20203;-78
2024/01/13 12:30:55;;;;;;;30.97;20.70;;;4.40;99.90;;;;;;5079505;28;20189;-78
2024/01/13 12:33:23;;;;;;;32.30;22.00;;;4.30;99.90;;;;;;5078122;28;20221;-78
2024/01/13 12:35:58;;;;;;;34.10;21.50;;;4.40;99.90;;;;;;5057499;28;20197;-77
2024/01/13 12:38:27;;;;;;;30.73;18.97;;;4.30;99.90;;;;;;5063436;28;20201;-78
2024/01/13 12:40:57;;;;;;;33.50;21.53;;;4.30;99.90;;;;;;5075598;28;20607;-78
2024/01/13 12:43:25;;;;;;;29.70;19.07;;;4.30;99.90;;;;;;5091038;28;20212;-78
2024/01/13 12:45:54;;;;;;;34.20;22.47;;;4.20;99.90;;;;;;5070372;28;20217;-78